createdAt,value
2022-09-07T00:01:07.524Z,3.08
2022-09-07T00:03:37.563Z,3.05
2022-09-07T00:06:09.549Z,2.45
2022-09-07T00:08:36.343Z,2.42
2022-09-07T00:11:06.189Z,2.40
2022-09-07T00:13:36.855Z,2.60
2022-09-07T00:16:13.110Z,2.77
2022-09-07T00:18:43.812Z,2.58
2022-09-07T00:21:17.458Z,2.40
2022-09-07T00:23:49.011Z,2.40
2022-09-07T00:26:22.001Z,2.58
2022-09-07T00:28:52.196Z,2.53
2022-09-07T00:31:21.970Z,2.55
2022-09-07T00:33:50.669Z,2.80
2022-09-07T00:36:18.939Z,2.67
2022-09-07T00:38:46.157Z,3.03
2022-09-07T00:41:13.758Z,2.45
2022-09-07T00:43:44.925Z,2.40
2022-09-07T00:46:20.467Z,2.65
2022-09-07T00:48:59.102Z,2.72
2022-09-07T00:51:38.805Z,2.67
2022-09-07T00:54:10.051Z,2.53
2022-09-07T00:56:41.371Z,2.92
2022-09-07T00:59:11.077Z,2.60
2022-09-07T01:01:39.314Z,2.35
2022-09-07T01:04:06.740Z,2.42
2022-09-07T01:06:36.109Z,2.22
2022-09-07T01:09:10.143Z,2.40
2022-09-07T01:11:38.048Z,2.85
2022-09-07T01:14:09.387Z,3.08
2022-09-07T01:17:14.820Z,2.83
2022-09-07T01:19:50.429Z,3.10
2022-09-07T01:22:23.217Z,3.28
2022-09-07T01:24:58.994Z,3.33
2022-09-07T01:27:41.644Z,3.13
2022-09-07T01:30:09.529Z,3.70
2022-09-07T01:32:39.191Z,3.35
2022-09-07T01:35:14.330Z,3.10
2022-09-07T01:38:03.250Z,3.20
2022-09-07T01:40:43.174Z,3.75
2022-09-07T01:43:17.150Z,2.80
2022-09-07T01:45:45.783Z,3.22
2022-09-07T01:48:17.601Z,3.08
2022-09-07T01:50:52.448Z,3.70
2022-09-07T01:53:30.809Z,3.30
2022-09-07T01:56:07.469Z,3.45
2022-09-07T01:58:56.537Z,3.42
2022-09-07T02:01:35.385Z,3.22
2022-09-07T02:04:11.086Z,3.20
2022-09-07T02:06:45.516Z,2.88
2022-09-07T02:09:26.617Z,3.28
2022-09-07T02:11:57.403Z,3.17
2022-09-07T02:14:51.934Z,3.30
2022-09-07T02:17:35.885Z,3.40
2022-09-07T02:20:16.737Z,3.67
2022-09-07T02:22:48.190Z,3.60
2022-09-07T02:27:54.367Z,3.90
2022-09-07T02:30:24.158Z,3.67
2022-09-07T02:32:51.120Z,3.60
2022-09-07T02:35:20.152Z,4.00
2022-09-07T02:37:48.549Z,3.80
2022-09-07T02:40:15.273Z,3.47
2022-09-07T02:42:43.301Z,3.33
2022-09-07T02:45:15.560Z,3.47
2022-09-07T02:47:45.049Z,3.17
2022-09-07T02:50:15.119Z,3.90
2022-09-07T02:53:26.489Z,3.65
2022-09-07T02:56:16.783Z,3.95
2022-09-07T02:58:50.480Z,3.70
2022-09-07T03:02:01.764Z,4.03
2022-09-07T03:04:43.272Z,3.95
2022-09-07T03:12:14.510Z,4.03
2022-09-07T03:14:43.051Z,4.43
2022-09-07T03:17:13.094Z,4.13
2022-09-07T03:19:42.330Z,4.13
2022-09-07T03:22:09.093Z,4.60
2022-09-07T03:24:36.764Z,4.45
2022-09-07T03:27:03.694Z,4.22
2022-09-07T03:29:30.933Z,4.55
2022-09-07T03:31:57.778Z,4.00
2022-09-07T03:34:26.771Z,4.25
2022-09-07T03:36:53.609Z,4.20
2022-09-07T03:39:23.751Z,4.32
2022-09-07T03:41:50.764Z,5.00
2022-09-07T03:44:17.858Z,4.18
2022-09-07T03:46:44.697Z,4.53
2022-09-07T03:49:11.591Z,4.40
2022-09-07T03:51:38.388Z,4.60
2022-09-07T03:54:08.261Z,4.65
2022-09-07T03:56:34.999Z,4.55
2022-09-07T03:59:02.221Z,4.78
2022-09-07T04:01:29.185Z,4.63
2022-09-07T04:04:05.155Z,4.70
2022-09-07T04:06:32.477Z,4.80
2022-09-07T04:09:05.613Z,4.50
2022-09-07T04:11:32.994Z,4.35
2022-09-07T04:14:02.461Z,4.32
2022-09-07T04:16:34.579Z,4.22
2022-09-07T04:19:01.734Z,4.55
2022-09-07T04:21:30.623Z,4.25
2022-09-07T04:23:57.892Z,4.57
2022-09-07T04:26:34.153Z,4.53
2022-09-07T04:29:04.104Z,4.55
2022-09-07T04:31:34.935Z,4.45
2022-09-07T04:34:04.804Z,4.10
2022-09-07T04:36:34.733Z,3.97
2022-09-07T04:39:04.890Z,4.22
2022-09-07T04:41:32.949Z,3.60
2022-09-07T04:44:01.693Z,3.70
2022-09-07T04:46:33.882Z,3.65
2022-09-07T04:49:04.324Z,3.85
2022-09-07T04:51:34.604Z,3.88
2022-09-07T04:54:02.510Z,3.53
2022-09-07T04:56:30.231Z,4.68
2022-09-07T04:58:57.295Z,4.60
2022-09-07T05:01:25.916Z,5.60
2022-09-07T05:03:53.043Z,6.03
2022-09-07T05:06:21.799Z,6.60
2022-09-07T05:08:53.462Z,7.00
2022-09-07T05:11:28.751Z,6.90
2022-09-07T05:14:01.192Z,7.38
2022-09-07T05:19:03.909Z,11.63
2022-09-07T05:21:34.976Z,14.13
2022-09-07T05:24:02.645Z,14.85
2022-09-07T05:26:32.769Z,14.15
2022-09-07T05:31:55.884Z,14.95
2022-09-07T05:34:31.440Z,14.95
2022-09-07T05:36:59.038Z,14.13
2022-09-07T05:39:26.712Z,13.55
2022-09-07T05:41:54.007Z,13.18
2022-09-07T05:47:10.106Z,12.82
2022-09-07T05:49:39.108Z,12.35
2022-09-07T05:52:06.013Z,13.38
2022-09-07T05:54:32.884Z,12.80
2022-09-07T05:56:59.651Z,12.02
2022-09-07T05:59:26.452Z,13.25
2022-09-07T06:01:53.337Z,11.93
2022-09-07T06:04:22.946Z,12.77
2022-09-07T06:07:20.174Z,13.63
2022-09-07T06:12:28.356Z,13.35
2022-09-07T06:14:55.226Z,15.13
2022-09-07T06:17:26.590Z,15.75
2022-09-07T06:19:53.654Z,17.40
2022-09-07T06:22:20.552Z,16.35
2022-09-07T06:24:49.523Z,15.50
2022-09-07T06:27:16.480Z,16.58
2022-09-07T06:29:43.472Z,17.08
2022-09-07T06:34:59.311Z,16.35
2022-09-07T06:37:26.139Z,16.95
2022-09-07T06:39:55.408Z,16.45
2022-09-07T06:42:25.227Z,17.52
2022-09-07T06:44:55.279Z,17.90
2022-09-07T06:47:24.793Z,17.92
2022-09-07T06:49:51.546Z,17.52
2022-09-07T06:52:18.326Z,18.05
2022-09-07T06:55:00.987Z,16.35
2022-09-07T06:57:30.405Z,16.92
2022-09-07T06:59:57.230Z,16.67
2022-09-07T07:02:24.093Z,17.80
2022-09-07T07:04:51.048Z,16.67
2022-09-07T07:07:23.911Z,16.52
2022-09-07T07:09:54.046Z,16.30
2022-09-07T07:14:54.736Z,16.45
2022-09-07T07:17:21.793Z,15.35
2022-09-07T07:19:48.558Z,15.60
2022-09-07T07:25:02.509Z,14.93
2022-09-07T07:27:31.479Z,15.23
2022-09-07T07:29:58.497Z,15.48
2022-09-07T07:32:25.262Z,15.45
2022-09-07T07:34:52.257Z,15.20
2022-09-07T07:37:18.998Z,13.70
2022-09-07T07:42:39.693Z,11.90
2022-09-07T07:47:54.840Z,11.70
2022-09-07T07:50:31.935Z,11.20
2022-09-07T07:55:46.837Z,9.88
2022-09-07T07:58:16.009Z,11.63
2022-09-07T08:00:58.557Z,11.18
2022-09-07T08:03:30.317Z,12.20
2022-09-07T08:06:04.383Z,12.30
2022-09-07T08:08:34.028Z,11.63
2022-09-07T08:11:17.006Z,11.07
2022-09-07T08:13:45.650Z,10.35
2022-09-07T08:16:13.578Z,11.88
2022-09-07T08:18:40.410Z,12.02
2022-09-07T08:21:12.520Z,10.95
2022-09-07T08:23:39.682Z,11.48
2022-09-07T08:26:06.692Z,10.75
2022-09-07T08:28:36.734Z,10.20
2022-09-07T08:31:12.939Z,9.85
2022-09-07T08:33:45.192Z,9.52
2022-09-07T08:36:15.266Z,9.07
2022-09-07T08:38:45.435Z,8.52
2022-09-07T08:41:40.727Z,9.27
2022-09-07T08:44:27.897Z,8.80
2022-09-07T08:47:16.845Z,8.52
2022-09-07T08:49:52.055Z,8.02
2022-09-07T08:52:29.135Z,7.18
2022-09-07T08:55:21.049Z,5.97
2022-09-07T08:57:55.400Z,5.53
2022-09-07T09:00:22.608Z,5.13
2022-09-07T09:06:08.871Z,4.40
2022-09-07T09:08:53.023Z,3.83
2022-09-07T09:11:44.386Z,3.80
2022-09-07T09:14:19.831Z,3.88
2022-09-07T09:16:53.136Z,4.28
2022-09-07T09:19:23.018Z,4.90
2022-09-07T09:22:00.606Z,4.30
2022-09-07T09:24:33.912Z,4.03
2022-09-07T09:27:01.193Z,3.38
2022-09-07T09:29:28.170Z,3.30
2022-09-07T09:31:57.414Z,3.08
2022-09-07T09:34:29.326Z,3.03
2022-09-07T09:36:58.118Z,3.60
2022-09-07T09:39:33.322Z,2.83
2022-09-07T09:42:05.285Z,3.50
2022-09-07T09:44:37.584Z,3.35
2022-09-07T09:47:33.318Z,3.45
2022-09-07T09:50:07.548Z,3.40
2022-09-07T09:52:47.604Z,3.10
2022-09-07T09:55:35.901Z,3.10
2022-09-07T10:03:55.399Z,2.78
2022-09-07T10:06:23.241Z,3.15
2022-09-07T10:08:57.826Z,3.08
2022-09-07T10:14:53.186Z,2.55
2022-09-07T10:17:33.280Z,2.80
2022-09-07T10:20:13.059Z,2.72
2022-09-07T10:23:00.446Z,3.00
2022-09-07T10:25:44.334Z,3.22
2022-09-07T10:28:14.056Z,3.50
2022-09-07T10:31:16.519Z,3.30
2022-09-07T10:34:25.740Z,3.15
2022-09-07T10:36:54.100Z,3.42
2022-09-07T10:39:27.806Z,3.92
2022-09-07T10:42:20.320Z,3.30
2022-09-07T10:44:56.356Z,3.13
2022-09-07T10:47:59.729Z,3.20
2022-09-07T10:50:47.822Z,2.88
2022-09-07T10:56:59.626Z,2.65
2022-09-07T11:05:50.561Z,3.17
2022-09-07T11:09:15.873Z,2.90
2022-09-07T11:14:22.001Z,3.47
2022-09-07T11:17:01.456Z,3.33
2022-09-07T11:19:43.943Z,4.53
2022-09-07T11:22:28.128Z,4.00
2022-09-07T11:28:21.005Z,3.00
2022-09-07T11:30:57.842Z,3.65
2022-09-07T11:33:32.418Z,3.08
2022-09-07T11:36:12.363Z,2.97
2022-09-07T11:38:49.135Z,3.40
2022-09-07T11:41:37.081Z,3.03
2022-09-07T11:44:28.669Z,3.67
2022-09-07T11:47:04.154Z,2.42
2022-09-07T11:49:30.936Z,2.78
2022-09-07T11:52:05.126Z,3.08
2022-09-07T11:54:35.205Z,2.83
2022-09-07T11:57:19.545Z,2.30
2022-09-07T12:00:01.684Z,2.28
2022-09-07T12:02:58.728Z,2.25
2022-09-07T12:05:41.464Z,2.55
2022-09-07T12:08:49.388Z,2.80
2022-09-07T12:11:37.610Z,2.70
2022-09-07T12:14:10.338Z,2.78
2022-09-07T12:16:59.820Z,2.78
2022-09-07T12:19:30.236Z,2.50
2022-09-07T12:22:00.694Z,3.10
2022-09-07T12:24:49.815Z,3.17
2022-09-07T12:27:28.061Z,2.58
2022-09-07T12:29:57.971Z,3.63
2022-09-07T12:32:58.220Z,2.53
2022-09-07T12:35:41.948Z,2.70
2022-09-07T12:38:16.938Z,2.90
2022-09-07T12:40:58.994Z,2.90
2022-09-07T12:43:43.850Z,2.70
2022-09-07T12:46:39.314Z,2.95
2022-09-07T12:49:20.368Z,2.67
2022-09-07T12:52:15.972Z,3.63
2022-09-07T12:55:23.646Z,2.95
2022-09-07T12:58:17.189Z,2.47
2022-09-07T13:01:08.458Z,3.22
2022-09-07T13:07:07.596Z,2.55
2022-09-07T13:09:39.306Z,3.10
2022-09-07T13:12:53.668Z,2.75
2022-09-07T13:15:41.038Z,2.40
2022-09-07T13:18:31.647Z,2.90
2022-09-07T13:21:07.409Z,3.42
2022-09-07T13:24:45.560Z,2.42
2022-09-07T13:27:22.626Z,2.60
2022-09-07T13:29:57.207Z,2.15
2022-09-07T13:35:29.403Z,2.83
2022-09-07T13:37:59.782Z,2.92
2022-09-07T13:40:30.322Z,2.40
2022-09-07T13:42:58.747Z,2.65
2022-09-07T13:45:36.887Z,2.45
2022-09-07T13:48:14.817Z,2.58
2022-09-07T13:50:47.326Z,2.38
2022-09-07T13:53:46.917Z,2.65
2022-09-07T13:56:42.883Z,2.20
2022-09-07T13:59:25.423Z,2.60
2022-09-07T14:01:56.101Z,2.33
2022-09-07T14:04:32.916Z,2.78
2022-09-07T14:07:26.738Z,2.22
2022-09-07T14:10:19.748Z,2.85
2022-09-07T14:12:53.971Z,2.47
2022-09-07T14:15:50.809Z,2.13
2022-09-07T14:18:30.409Z,2.63
2022-09-07T14:20:58.814Z,2.47
2022-09-07T14:23:31.401Z,1.90
2022-09-07T14:26:18.284Z,1.98
2022-09-07T14:28:54.040Z,2.20
2022-09-07T14:31:23.179Z,2.50
2022-09-07T14:33:58.485Z,2.42
2022-09-07T14:36:46.460Z,2.25
2022-09-07T14:39:17.063Z,2.53
2022-09-07T14:41:44.963Z,2.35
2022-09-07T14:44:32.805Z,2.58
2022-09-07T14:47:04.049Z,2.55
2022-09-07T14:49:31.422Z,2.40
2022-09-07T14:52:00.674Z,2.53
2022-09-07T14:54:34.860Z,1.90
2022-09-07T14:57:27.369Z,2.13
2022-09-07T14:59:57.230Z,2.42
2022-09-07T15:02:31.768Z,2.33
2022-09-07T15:05:25.480Z,2.20
2022-09-07T15:08:05.295Z,2.53
2022-09-07T15:10:41.270Z,2.38
2022-09-07T15:13:26.926Z,2.35
2022-09-07T15:15:59.419Z,2.22
2022-09-07T15:18:57.481Z,2.25
2022-09-07T15:21:36.550Z,2.33
2022-09-07T15:24:07.414Z,2.80
2022-09-07T15:29:30.522Z,2.50
2022-09-07T15:32:04.433Z,2.88
2022-09-07T15:34:32.670Z,2.65
2022-09-07T15:37:03.707Z,2.97
2022-09-07T15:39:31.324Z,2.30
2022-09-07T15:42:00.685Z,2.60
2022-09-07T15:44:47.758Z,2.70
2022-09-07T15:50:05.509Z,2.60
2022-09-07T15:54:59.776Z,2.63
2022-09-07T16:00:16.147Z,2.30
2022-09-07T16:05:34.478Z,2.60
2022-09-07T16:11:05.054Z,3.35
2022-09-07T16:13:35.761Z,3.08
2022-09-07T16:16:05.885Z,2.65
2022-09-07T16:18:34.161Z,2.80
2022-09-07T16:21:26.226Z,3.17
2022-09-07T16:23:56.360Z,3.05
2022-09-07T16:26:27.717Z,2.65
2022-09-07T16:28:56.947Z,2.40
2022-09-07T16:31:27.717Z,2.47
2022-09-07T16:33:58.118Z,2.42
2022-09-07T16:36:27.950Z,2.72
2022-09-07T16:38:56.312Z,2.55
2022-09-07T16:41:29.258Z,2.28
2022-09-07T16:43:56.519Z,2.45
2022-09-07T16:46:26.448Z,2.50
2022-09-07T16:48:55.705Z,2.70
2022-09-07T16:51:23.876Z,2.97
2022-09-07T16:53:54.245Z,2.60
2022-09-07T16:56:23.936Z,2.50
2022-09-07T16:59:01.878Z,2.50
2022-09-07T17:01:34.517Z,2.20
2022-09-07T17:04:04.355Z,2.63
2022-09-07T17:06:33.860Z,2.15
2022-09-07T17:09:00.686Z,2.40
2022-09-07T17:11:33.054Z,2.70
2022-09-07T17:14:00.342Z,2.03
2022-09-07T17:16:30.403Z,2.47
2022-09-07T17:21:50.115Z,2.40
2022-09-07T17:24:19.856Z,2.65
2022-09-07T17:26:49.008Z,2.50
2022-09-07T17:29:16.010Z,2.63
2022-09-07T17:34:31.909Z,2.20
2022-09-07T17:37:00.554Z,2.78
2022-09-07T17:39:28.002Z,2.47
2022-09-07T17:41:55.081Z,2.25
2022-09-07T17:44:23.291Z,2.45
2022-09-07T17:46:51.706Z,2.40
2022-09-07T17:49:18.547Z,2.88
2022-09-07T17:51:45.793Z,2.78
2022-09-07T17:54:15.762Z,2.70
2022-09-07T17:56:43.552Z,2.80
2022-09-07T18:02:00.937Z,2.75
2022-09-07T18:04:28.518Z,2.53
2022-09-07T18:06:55.461Z,2.63
2022-09-07T18:09:22.149Z,2.90
2022-09-07T18:11:51.654Z,2.53
2022-09-07T18:14:19.309Z,2.50
2022-09-07T18:16:48.973Z,2.80
2022-09-07T18:19:18.783Z,2.75
2022-09-07T18:21:48.245Z,2.35
2022-09-07T18:24:23.619Z,2.97
2022-09-07T18:26:52.657Z,2.65
2022-09-07T18:29:33.534Z,2.90
2022-09-07T18:34:34.622Z,2.50
2022-09-07T18:37:04.688Z,2.38
2022-09-07T18:39:32.387Z,3.20
2022-09-07T18:41:59.164Z,3.13
2022-09-07T18:47:21.690Z,2.60
2022-09-07T18:49:51.389Z,3.17
2022-09-07T18:55:07.312Z,2.83
2022-09-07T18:57:37.219Z,2.70
2022-09-07T19:00:07.993Z,2.97
2022-09-07T19:02:37.353Z,2.65
2022-09-07T19:07:53.840Z,3.08
2022-09-07T19:10:20.630Z,2.97
2022-09-07T19:12:47.473Z,2.80
2022-09-07T19:15:20.352Z,2.78
2022-09-07T19:17:47.032Z,2.72
2022-09-07T19:20:13.765Z,2.85
2022-09-07T19:22:50.871Z,3.20
2022-09-07T19:25:19.352Z,3.20
2022-09-07T19:27:46.068Z,2.92
2022-09-07T19:30:13.555Z,3.20
2022-09-07T19:32:42.588Z,3.13
2022-09-07T19:35:12.261Z,2.72
2022-09-07T19:37:41.791Z,2.85
2022-09-07T19:40:13.528Z,3.10
2022-09-07T19:42:42.571Z,2.65
2022-09-07T19:45:12.079Z,2.80
2022-09-07T19:47:38.790Z,2.78
2022-09-07T19:50:06.027Z,2.70
2022-09-07T19:52:32.915Z,3.03
2022-09-07T19:55:02.698Z,3.60
2022-09-07T19:57:29.874Z,3.90
2022-09-07T19:59:59.207Z,3.45
2022-09-07T20:02:28.387Z,3.78
2022-09-07T20:04:55.615Z,3.67
2022-09-07T20:07:22.441Z,3.97
2022-09-07T20:09:51.056Z,3.60
2022-09-07T20:12:19.101Z,3.72
2022-09-07T20:14:46.137Z,3.58
2022-09-07T20:17:15.098Z,3.55
2022-09-07T20:19:41.884Z,3.95
2022-09-07T20:22:13.781Z,3.97
2022-09-07T20:24:43.748Z,4.50
2022-09-07T20:27:12.691Z,4.68
2022-09-07T20:29:41.766Z,3.70
2022-09-07T20:32:10.750Z,4.43
2022-09-07T20:34:37.631Z,3.75
2022-09-07T20:37:06.566Z,4.15
2022-09-07T20:39:39.094Z,4.15
2022-09-07T20:42:08.621Z,4.10
2022-09-07T20:44:35.528Z,4.78
2022-09-07T20:47:02.924Z,5.70
2022-09-07T20:49:30.300Z,4.35
2022-09-07T20:51:57.054Z,4.97
2022-09-07T20:54:24.007Z,5.03
2022-09-07T20:56:50.675Z,5.45
2022-09-07T20:59:17.603Z,5.32
2022-09-07T21:01:44.460Z,4.55
2022-09-07T21:04:11.292Z,4.53
2022-09-07T21:06:40.478Z,5.15
2022-09-07T21:09:07.183Z,4.70
2022-09-07T21:11:35.561Z,4.70
2022-09-07T21:14:07.960Z,4.75
2022-09-07T21:16:37.663Z,4.03
2022-09-07T21:19:07.285Z,3.67
2022-09-07T21:21:38.719Z,3.60
2022-09-07T21:24:06.634Z,3.30
2022-09-07T21:26:35.482Z,3.78
2022-09-07T21:29:05.121Z,4.47
2022-09-07T21:31:33.654Z,3.45
2022-09-07T21:34:02.231Z,3.75
2022-09-07T21:36:31.816Z,4.13
2022-09-07T21:38:58.577Z,3.63
2022-09-07T21:41:25.726Z,4.20
2022-09-07T21:43:56.669Z,4.00
2022-09-07T21:46:24.474Z,3.88
2022-09-07T21:48:51.359Z,4.07
2022-09-07T21:51:18.439Z,4.03
2022-09-07T21:53:45.189Z,3.70
2022-09-07T21:56:14.249Z,3.67
2022-09-07T21:58:41.609Z,4.75
2022-09-07T22:01:14.324Z,4.00
2022-09-07T22:03:41.281Z,3.33
2022-09-07T22:06:08.780Z,2.75
2022-09-07T22:08:39.106Z,2.80
2022-09-07T22:11:07.996Z,3.03
2022-09-07T22:13:35.225Z,2.67
2022-09-07T22:16:03.525Z,2.90
2022-09-07T22:18:32.959Z,2.70
2022-09-07T22:21:12.029Z,2.83
2022-09-07T22:23:43.779Z,3.10
2022-09-07T22:26:11.681Z,2.90
2022-09-07T22:28:41.752Z,3.03
2022-09-07T22:31:15.067Z,3.25
2022-09-07T22:33:42.280Z,3.30
2022-09-07T22:36:23.527Z,3.08
2022-09-07T22:38:53.259Z,3.88
2022-09-07T22:41:22.083Z,3.53
2022-09-07T22:43:50.916Z,4.03
2022-09-07T22:46:20.370Z,3.92
2022-09-07T22:48:49.886Z,3.20
2022-09-07T22:51:17.517Z,3.00
2022-09-07T22:53:45.025Z,3.05
2022-09-07T22:56:18.588Z,2.97
2022-09-07T22:58:47.068Z,2.90
2022-09-07T23:01:14.119Z,2.92
2022-09-07T23:03:43.650Z,2.70
2022-09-07T23:06:34.784Z,2.90
2022-09-07T23:09:05.213Z,2.80
2022-09-07T23:11:34.146Z,2.85
2022-09-07T23:14:03.132Z,2.92
2022-09-07T23:16:33.036Z,3.22
2022-09-07T23:19:00.812Z,3.10
2022-09-07T23:21:27.948Z,3.03
2022-09-07T23:23:59.713Z,3.33
2022-09-07T23:26:30.043Z,3.22
2022-09-07T23:29:01.699Z,3.13
2022-09-07T23:31:29.867Z,3.15
2022-09-07T23:33:59.958Z,3.20
2022-09-07T23:36:29.572Z,2.92
2022-09-07T23:38:58.449Z,3.55
2022-09-07T23:41:25.782Z,3.70
2022-09-07T23:43:55.866Z,4.13
2022-09-07T23:46:25.622Z,4.07
2022-09-07T23:48:52.462Z,3.70
2022-09-07T23:51:23.829Z,3.53
2022-09-07T23:53:50.925Z,3.60
2022-09-07T23:56:19.999Z,3.53
2022-09-07T23:58:48.906Z,3.67
